createdAt,value
2023-02-05T00:01:22.768Z,2.57
2023-02-05T00:03:50.020Z,2.65
2023-02-05T00:06:16.761Z,2.63
2023-02-05T00:08:43.524Z,2.62
2023-02-05T00:11:10.263Z,2.62
2023-02-05T00:13:41.221Z,2.52
2023-02-05T00:16:10.168Z,2.45
2023-02-05T00:18:37.653Z,2.34
2023-02-05T00:21:05.949Z,2.26
2023-02-05T00:23:33.785Z,2.21
2023-02-05T00:26:00.672Z,2.22
2023-02-05T00:28:27.462Z,2.25
2023-02-05T00:30:54.224Z,2.36
2023-02-05T00:33:22.067Z,2.51
2023-02-05T00:35:49.292Z,2.64
2023-02-05T00:38:16.127Z,2.69
2023-02-05T00:40:42.914Z,2.66
2023-02-05T00:43:10.198Z,2.66
2023-02-05T00:45:36.965Z,2.57
2023-02-05T00:48:07.323Z,2.40
2023-02-05T00:50:34.771Z,2.28
2023-02-05T00:53:01.468Z,2.29
2023-02-05T00:55:28.226Z,2.31
2023-02-05T00:57:55.287Z,2.41
2023-02-05T01:00:22.923Z,2.45
2023-02-05T01:02:49.886Z,2.40
2023-02-05T01:05:16.839Z,2.48
2023-02-05T01:07:43.643Z,2.52
2023-02-05T01:10:10.834Z,2.53
2023-02-05T01:12:37.585Z,2.55
2023-02-05T01:15:07.242Z,2.58
2023-02-05T01:17:34.502Z,2.61
2023-02-05T01:20:01.308Z,2.61
2023-02-05T01:22:28.051Z,2.58
2023-02-05T01:24:54.750Z,2.60
2023-02-05T01:27:21.470Z,2.57
2023-02-05T01:29:48.277Z,2.57
2023-02-05T01:32:14.995Z,2.60
2023-02-05T01:34:41.777Z,2.61
2023-02-05T01:37:08.548Z,2.63
2023-02-05T01:39:37.532Z,2.59
2023-02-05T01:42:06.954Z,2.57
2023-02-05T01:44:33.775Z,2.57
2023-02-05T01:47:00.472Z,2.55
2023-02-05T01:49:43.713Z,2.50
2023-02-05T01:52:14.311Z,2.51
2023-02-05T01:54:45.959Z,2.50
2023-02-05T01:57:22.321Z,2.51
2023-02-05T01:59:50.401Z,2.54
2023-02-05T02:02:17.583Z,2.62
2023-02-05T02:04:50.507Z,2.61
2023-02-05T02:07:21.675Z,2.60
2023-02-05T02:09:49.049Z,2.59
2023-02-05T02:12:23.596Z,2.61
2023-02-05T02:14:55.320Z,2.59
2023-02-05T02:17:22.659Z,2.59
2023-02-05T02:20:02.332Z,2.60
2023-02-05T02:22:55.445Z,2.61
2023-02-05T02:25:50.864Z,2.58
2023-02-05T02:28:28.272Z,2.56
2023-02-05T02:31:07.020Z,2.56
2023-02-05T02:33:40.114Z,2.53
2023-02-05T02:36:13.114Z,2.55
2023-02-05T02:38:51.356Z,2.55
2023-02-05T02:41:42.120Z,2.58
2023-02-05T02:44:15.909Z,2.66
2023-02-05T02:46:54.378Z,2.69
2023-02-05T02:49:45.879Z,2.75
2023-02-05T02:52:15.710Z,2.74
2023-02-05T02:54:46.291Z,2.70
2023-02-05T02:57:17.408Z,2.76
2023-02-05T02:59:46.501Z,2.79
2023-02-05T03:02:16.033Z,2.74
2023-02-05T03:04:47.254Z,2.82
2023-02-05T03:07:25.070Z,2.86
2023-02-05T03:10:00.496Z,2.85
2023-02-05T03:12:27.689Z,2.74
2023-02-05T03:14:55.795Z,2.71
2023-02-05T03:17:25.618Z,2.67
2023-02-05T03:19:59.479Z,2.72
2023-02-05T03:22:26.352Z,2.68
2023-02-05T03:24:53.657Z,2.75
2023-02-05T03:27:24.288Z,2.83
2023-02-05T03:29:51.729Z,2.90
2023-02-05T03:32:54.392Z,2.95
2023-02-05T03:35:46.568Z,2.87
2023-02-05T03:38:13.238Z,2.89
2023-02-05T03:40:50.905Z,2.92
2023-02-05T03:43:30.504Z,2.75
2023-02-05T03:46:18.643Z,2.68
2023-02-05T03:49:09.747Z,2.66
2023-02-05T03:51:44.442Z,2.58
2023-02-05T03:54:17.981Z,2.61
2023-02-05T03:57:03.941Z,2.51
2023-02-05T03:59:35.218Z,2.45
2023-02-05T04:02:04.920Z,2.40
2023-02-05T04:04:36.412Z,2.38
2023-02-05T04:07:03.807Z,2.33
2023-02-05T04:09:30.553Z,2.42
2023-02-05T04:11:57.895Z,2.34
2023-02-05T04:14:25.230Z,2.31
2023-02-05T04:16:52.281Z,2.27
2023-02-05T04:19:21.553Z,2.22
2023-02-05T04:21:48.353Z,2.25
2023-02-05T04:24:15.295Z,2.22
2023-02-05T04:26:42.346Z,2.23
2023-02-05T04:29:09.195Z,2.28
2023-02-05T04:31:42.121Z,2.33
2023-02-05T04:34:09.551Z,2.31
2023-02-05T04:36:37.649Z,2.35
2023-02-05T04:39:04.501Z,2.37
2023-02-05T04:41:31.329Z,2.41
2023-02-05T04:43:57.989Z,2.42
2023-02-05T04:46:24.803Z,2.42
2023-02-05T04:48:51.547Z,2.45
2023-02-05T04:51:18.306Z,2.49
2023-02-05T04:53:45.361Z,2.51
2023-02-05T04:56:14.963Z,2.52
2023-02-05T04:58:42.573Z,2.48
2023-02-05T05:01:18.105Z,2.54
2023-02-05T05:03:45.430Z,2.58
2023-02-05T05:06:13.686Z,2.67
2023-02-05T05:08:40.802Z,2.61
2023-02-05T05:11:12.848Z,2.68
2023-02-05T05:13:39.838Z,2.69
2023-02-05T05:16:07.678Z,2.79
2023-02-05T05:18:35.273Z,2.79
2023-02-05T05:21:03.115Z,2.74
2023-02-05T05:23:31.317Z,2.69
2023-02-05T05:25:58.017Z,2.80
2023-02-05T05:28:25.070Z,2.72
2023-02-05T05:30:51.822Z,2.79
2023-02-05T05:33:18.558Z,2.78
2023-02-05T05:35:46.008Z,2.78
2023-02-05T05:38:12.736Z,2.84
2023-02-05T05:40:58.578Z,2.80
2023-02-05T05:43:43.958Z,2.80
2023-02-05T05:46:10.752Z,2.81
2023-02-05T05:48:37.626Z,2.79
2023-02-05T05:51:04.939Z,2.83
2023-02-05T05:53:32.062Z,2.76
2023-02-05T05:55:58.799Z,2.74
2023-02-05T05:58:25.541Z,2.71
2023-02-05T06:00:52.450Z,2.78
2023-02-05T06:03:19.185Z,2.80
2023-02-05T06:05:45.923Z,2.75
2023-02-05T06:08:14.181Z,2.73
2023-02-05T06:10:40.865Z,2.65
2023-02-05T06:13:07.667Z,2.69
2023-02-05T06:15:35.357Z,2.54
2023-02-05T06:18:02.283Z,2.57
2023-02-05T06:20:29.033Z,2.54
2023-02-05T06:22:55.769Z,2.41
2023-02-05T06:25:22.627Z,2.38
2023-02-05T06:27:49.439Z,2.32
2023-02-05T06:30:16.458Z,2.42
2023-02-05T06:32:43.280Z,2.44
2023-02-05T06:35:09.999Z,2.48
2023-02-05T06:37:47.249Z,2.51
2023-02-05T06:40:15.976Z,2.58
2023-02-05T06:42:43.149Z,2.65
2023-02-05T06:45:11.458Z,2.74
2023-02-05T06:47:40.152Z,2.76
2023-02-05T06:50:07.815Z,2.78
2023-02-05T06:52:34.522Z,2.74
2023-02-05T06:55:01.329Z,2.66
2023-02-05T06:57:28.255Z,2.71
2023-02-05T06:59:54.977Z,2.72
2023-02-05T07:02:21.812Z,2.77
2023-02-05T07:04:48.664Z,2.77
2023-02-05T07:07:16.888Z,2.79
2023-02-05T07:09:44.174Z,2.90
2023-02-05T07:12:10.990Z,2.95
2023-02-05T07:14:38.830Z,2.91
2023-02-05T07:17:05.569Z,2.85
2023-02-05T07:19:32.272Z,2.78
2023-02-05T07:21:58.996Z,2.82
2023-02-05T07:24:25.928Z,2.95
2023-02-05T07:26:52.632Z,2.87
2023-02-05T07:29:19.334Z,2.91
2023-02-05T07:31:46.327Z,2.91
2023-02-05T07:34:13.138Z,2.97
2023-02-05T07:36:39.941Z,2.93
2023-02-05T07:39:06.703Z,2.93
2023-02-05T07:41:33.409Z,2.91
2023-02-05T07:44:00.165Z,2.86
2023-02-05T07:46:27.021Z,2.83
2023-02-05T07:48:55.026Z,2.90
2023-02-05T07:51:24.162Z,2.79
2023-02-05T07:53:51.737Z,2.85
2023-02-05T07:56:21.802Z,3.04
2023-02-05T07:58:48.651Z,3.11
2023-02-05T08:01:15.312Z,3.21
2023-02-05T08:03:42.074Z,3.27
2023-02-05T08:06:11.768Z,3.34
2023-02-05T08:08:38.492Z,3.38
2023-02-05T08:11:06.780Z,3.47
2023-02-05T08:13:34.115Z,3.50
2023-02-05T08:16:05.828Z,3.53
2023-02-05T08:18:34.585Z,3.54
2023-02-05T08:21:01.595Z,3.45
2023-02-05T08:23:28.531Z,3.44
2023-02-05T08:25:56.558Z,3.50
2023-02-05T08:28:25.705Z,3.42
2023-02-05T08:30:52.967Z,3.50
2023-02-05T08:33:20.162Z,3.55
2023-02-05T08:35:46.896Z,3.61
2023-02-05T08:38:13.634Z,3.69
2023-02-05T08:40:40.492Z,3.65
2023-02-05T08:43:08.642Z,3.48
2023-02-05T08:45:36.226Z,3.53
2023-02-05T08:48:03.317Z,3.51
2023-02-05T08:50:30.090Z,3.48
2023-02-05T08:52:56.954Z,3.54
2023-02-05T08:55:23.765Z,3.55
2023-02-05T08:57:50.496Z,3.64
2023-02-05T09:00:17.438Z,3.66
2023-02-05T09:02:44.945Z,3.67
2023-02-05T09:05:11.805Z,3.74
2023-02-05T09:07:39.852Z,3.64
2023-02-05T09:10:09.461Z,3.83
2023-02-05T09:12:36.418Z,3.86
2023-02-05T09:15:03.297Z,4.00
2023-02-05T09:17:30.000Z,4.06
2023-02-05T09:19:56.934Z,4.04
2023-02-05T09:22:23.631Z,4.14
2023-02-05T09:24:50.432Z,4.15
2023-02-05T09:27:17.197Z,4.12
2023-02-05T09:29:43.950Z,4.26
2023-02-05T09:32:10.706Z,4.43
2023-02-05T09:34:37.360Z,4.54
2023-02-05T09:37:04.088Z,4.67
2023-02-05T09:40:12.302Z,4.71
2023-02-05T09:42:41.981Z,4.62
2023-02-05T09:45:48.936Z,4.69
2023-02-05T09:48:34.497Z,4.66
2023-02-05T09:51:02.477Z,4.88
2023-02-05T09:53:35.437Z,4.89
2023-02-05T09:56:04.482Z,5.01
2023-02-05T09:58:35.067Z,5.14
2023-02-05T10:01:11.635Z,5.15
2023-02-05T10:03:47.217Z,5.12
2023-02-05T10:06:45.005Z,5.10
2023-02-05T10:09:54.382Z,5.12
2023-02-05T10:12:24.086Z,5.12
2023-02-05T10:15:21.509Z,5.11
2023-02-05T10:18:03.483Z,5.12
2023-02-05T10:20:49.078Z,5.19
2023-02-05T10:23:18.218Z,5.23
2023-02-05T10:26:03.981Z,5.26
2023-02-05T10:28:57.019Z,5.35
2023-02-05T10:32:02.418Z,5.45
2023-02-05T10:34:44.147Z,5.45
2023-02-05T10:37:16.209Z,5.48
2023-02-05T10:39:43.453Z,5.48
2023-02-05T10:42:28.942Z,5.49
2023-02-05T10:45:05.257Z,5.58
2023-02-05T10:47:31.934Z,5.58
2023-02-05T10:50:06.930Z,5.60
2023-02-05T10:52:33.663Z,5.66
2023-02-05T10:55:00.647Z,5.66
2023-02-05T10:57:33.871Z,5.73
2023-02-05T11:00:08.746Z,5.69
2023-02-05T11:02:41.324Z,5.75
2023-02-05T11:05:19.412Z,5.70
2023-02-05T11:07:49.192Z,5.77
2023-02-05T11:10:20.613Z,5.74
2023-02-05T11:12:51.306Z,5.69
2023-02-05T11:15:21.984Z,5.72
2023-02-05T11:18:04.166Z,5.69
2023-02-05T11:20:33.845Z,5.72
2023-02-05T11:23:21.149Z,5.69
2023-02-05T11:26:18.901Z,5.70
2023-02-05T11:28:45.975Z,5.74
2023-02-05T11:31:39.854Z,5.71
2023-02-05T11:34:09.527Z,5.77
2023-02-05T11:36:38.612Z,5.75
2023-02-05T11:39:07.122Z,5.80
2023-02-05T11:41:48.534Z,5.78
2023-02-05T11:44:24.264Z,5.79
2023-02-05T11:46:57.562Z,5.76
2023-02-05T11:49:34.907Z,5.81
2023-02-05T11:52:08.837Z,5.78
2023-02-05T11:54:37.404Z,5.84
2023-02-05T11:57:28.749Z,5.87
2023-02-05T12:00:00.273Z,5.85
2023-02-05T12:02:29.807Z,5.83
2023-02-05T12:05:06.706Z,5.86
2023-02-05T12:08:10.997Z,5.84
2023-02-05T12:10:58.958Z,5.90
2023-02-05T12:13:45.740Z,5.92
2023-02-05T12:16:47.672Z,5.92
2023-02-05T12:19:24.302Z,5.91
2023-02-05T12:22:02.595Z,5.97
2023-02-05T12:24:47.843Z,6.06
2023-02-05T12:27:30.077Z,6.05
2023-02-05T12:30:11.700Z,5.96
2023-02-05T12:32:45.490Z,6.07
2023-02-05T12:35:30.725Z,6.07
2023-02-05T12:38:31.558Z,6.19
2023-02-05T12:41:14.759Z,6.27
2023-02-05T12:43:53.742Z,6.35
2023-02-05T12:46:38.561Z,6.47
2023-02-05T12:49:28.169Z,6.53
2023-02-05T12:52:14.685Z,6.58
2023-02-05T12:55:27.107Z,6.70
2023-02-05T12:57:58.933Z,6.91
2023-02-05T13:00:34.866Z,7.17
2023-02-05T13:03:23.603Z,6.94
2023-02-05T13:05:58.391Z,6.97
2023-02-05T13:08:51.848Z,7.06
2023-02-05T13:11:25.786Z,7.23
2023-02-05T13:13:58.493Z,7.19
2023-02-05T13:16:37.832Z,7.06
2023-02-05T13:19:39.427Z,6.94
2023-02-05T13:22:37.119Z,7.02
2023-02-05T13:25:47.366Z,6.95
2023-02-05T13:28:38.973Z,6.85
2023-02-05T13:31:14.904Z,7.06
2023-02-05T13:33:43.455Z,6.87
2023-02-05T13:36:18.531Z,6.72
2023-02-05T13:39:26.420Z,6.71
2023-02-05T13:42:35.320Z,6.84
2023-02-05T13:45:08.241Z,6.64
2023-02-05T13:48:10.857Z,6.56
2023-02-05T13:50:56.022Z,6.67
2023-02-05T13:53:29.209Z,6.61
2023-02-05T13:56:21.951Z,6.62
2023-02-05T13:58:51.070Z,6.54
2023-02-05T14:01:29.871Z,6.51
2023-02-05T14:04:04.924Z,6.64
2023-02-05T14:06:32.790Z,6.74
2023-02-05T14:09:06.964Z,6.68
2023-02-05T14:12:03.338Z,6.58
2023-02-05T14:14:37.803Z,6.61
2023-02-05T14:17:29.201Z,6.54
2023-02-05T14:19:58.852Z,6.58
2023-02-05T14:22:37.777Z,6.42
2023-02-05T14:25:25.120Z,6.42
2023-02-05T14:27:55.370Z,6.43
2023-02-05T14:30:31.397Z,6.43
2023-02-05T14:33:02.763Z,6.32
2023-02-05T14:35:33.055Z,6.24
2023-02-05T14:38:15.950Z,6.31
2023-02-05T14:40:43.062Z,6.18
2023-02-05T14:43:16.174Z,6.22
2023-02-05T14:45:49.599Z,6.22
2023-02-05T14:48:24.793Z,6.23
2023-02-05T14:51:07.930Z,6.21
2023-02-05T14:53:37.384Z,6.16
2023-02-05T14:56:05.604Z,6.18
2023-02-05T14:58:40.941Z,6.17
2023-02-05T15:01:31.297Z,6.18
2023-02-05T15:04:00.182Z,6.13
2023-02-05T15:06:29.757Z,6.14
2023-02-05T15:09:12.222Z,6.13
2023-02-05T15:12:08.222Z,6.07
2023-02-05T15:14:52.732Z,6.08
2023-02-05T15:17:35.808Z,6.06
2023-02-05T15:20:19.553Z,6.07
2023-02-05T15:22:55.124Z,6.05
2023-02-05T15:25:31.345Z,6.10
2023-02-05T15:28:23.510Z,6.08
2023-02-05T15:30:58.065Z,6.09
2023-02-05T15:33:35.761Z,6.06
2023-02-05T15:36:08.692Z,6.06
2023-02-05T15:38:44.122Z,6.04
2023-02-05T15:41:12.888Z,6.01
2023-02-05T15:43:39.706Z,5.99
2023-02-05T15:46:12.017Z,5.98
2023-02-05T15:48:40.826Z,5.95
2023-02-05T15:51:27.196Z,5.94
2023-02-05T15:53:57.073Z,5.96
2023-02-05T15:56:27.196Z,6.00
2023-02-05T15:58:57.621Z,5.94
2023-02-05T16:01:35.452Z,5.93
2023-02-05T16:04:02.857Z,5.93
2023-02-05T16:06:30.952Z,5.90
2023-02-05T16:08:57.801Z,5.91
2023-02-05T16:11:33.370Z,5.89
2023-02-05T16:14:21.399Z,5.86
2023-02-05T16:17:15.954Z,5.83
2023-02-05T16:19:51.221Z,5.84
2023-02-05T16:22:43.210Z,5.89
2023-02-05T16:25:36.136Z,5.87
2023-02-05T16:28:11.244Z,5.83
2023-02-05T16:30:42.902Z,5.80
2023-02-05T16:33:38.268Z,5.81
2023-02-05T16:36:07.722Z,5.80
2023-02-05T16:38:35.407Z,5.78
2023-02-05T16:41:21.706Z,5.75
2023-02-05T16:43:49.667Z,5.69
2023-02-05T16:46:25.765Z,5.72
2023-02-05T16:49:00.451Z,5.72
2023-02-05T16:51:38.185Z,5.68
2023-02-05T16:54:11.047Z,5.66
2023-02-05T16:56:46.229Z,5.64
2023-02-05T16:59:21.162Z,5.64
2023-02-05T17:01:48.133Z,5.63
2023-02-05T17:04:29.627Z,5.58
2023-02-05T17:06:59.179Z,5.59
2023-02-05T17:09:34.636Z,5.57
2023-02-05T17:12:19.872Z,5.51
2023-02-05T17:14:59.202Z,5.49
2023-02-05T17:17:27.147Z,5.52
2023-02-05T17:20:17.699Z,5.49
2023-02-05T17:23:05.877Z,5.50
2023-02-05T17:25:37.994Z,5.45
2023-02-05T17:28:07.401Z,5.42
2023-02-05T17:30:34.651Z,5.46
2023-02-05T17:33:06.179Z,5.46
2023-02-05T17:35:34.022Z,5.41
2023-02-05T17:38:00.978Z,5.45
2023-02-05T17:40:27.754Z,5.44
2023-02-05T17:42:54.759Z,5.44
2023-02-05T17:45:31.829Z,5.41
2023-02-05T17:47:58.654Z,5.43
2023-02-05T17:50:25.451Z,5.43
2023-02-05T17:52:52.767Z,5.43
2023-02-05T17:55:21.608Z,5.43
2023-02-05T17:57:48.738Z,5.46
2023-02-05T18:00:17.832Z,5.47
2023-02-05T18:02:44.573Z,5.45
2023-02-05T18:05:14.804Z,5.46
2023-02-05T18:07:46.010Z,5.42
2023-02-05T18:10:16.293Z,5.36
2023-02-05T18:12:43.208Z,5.36
2023-02-05T18:15:10.994Z,5.40
2023-02-05T18:17:38.384Z,5.40
2023-02-05T18:20:06.003Z,5.39
2023-02-05T18:22:32.775Z,5.41
2023-02-05T18:24:59.532Z,5.37
2023-02-05T18:27:26.500Z,5.33
2023-02-05T18:29:53.907Z,5.34
2023-02-05T18:32:20.631Z,5.36
2023-02-05T18:34:47.559Z,5.32
2023-02-05T18:37:16.653Z,5.30
2023-02-05T18:39:44.012Z,5.30
2023-02-05T18:42:12.920Z,5.31
2023-02-05T18:44:40.051Z,5.31
2023-02-05T18:47:07.583Z,5.30
2023-02-05T18:49:35.218Z,5.26
2023-02-05T18:52:02.687Z,5.20
2023-02-05T18:54:29.671Z,5.20
2023-02-05T18:56:57.191Z,5.20
2023-02-05T18:59:25.851Z,5.18
2023-02-05T19:01:53.064Z,5.15
2023-02-05T19:04:20.912Z,5.15
2023-02-05T19:06:53.762Z,5.15
2023-02-05T19:09:22.415Z,5.11
2023-02-05T19:11:50.056Z,5.07
2023-02-05T19:14:18.710Z,5.07
2023-02-05T19:16:47.322Z,5.03
2023-02-05T19:19:22.070Z,5.04
2023-02-05T19:22:00.021Z,5.07
2023-02-05T19:24:26.916Z,5.06
2023-02-05T19:26:56.557Z,5.03
2023-02-05T19:29:23.548Z,5.10
2023-02-05T19:31:50.796Z,5.04
2023-02-05T19:34:17.647Z,5.02
2023-02-05T19:36:44.517Z,5.04
2023-02-05T19:39:14.129Z,4.96
2023-02-05T19:41:45.742Z,4.94
2023-02-05T19:44:13.093Z,4.95
2023-02-05T19:46:44.158Z,4.96
2023-02-05T19:49:18.898Z,5.01
2023-02-05T19:51:51.130Z,4.98
2023-02-05T19:54:20.578Z,4.93
2023-02-05T19:56:48.955Z,4.93
2023-02-05T19:59:16.892Z,4.96
2023-02-05T20:01:45.349Z,4.93
2023-02-05T20:04:17.116Z,4.95
2023-02-05T20:06:46.268Z,4.98
2023-02-05T20:09:14.594Z,4.99
2023-02-05T20:11:44.217Z,4.95
2023-02-05T20:14:11.947Z,4.97
2023-02-05T20:16:42.215Z,4.95
2023-02-05T20:19:11.589Z,4.96
2023-02-05T20:21:38.709Z,4.97
2023-02-05T20:24:07.496Z,4.96
2023-02-05T20:26:35.407Z,4.92
2023-02-05T20:29:20.841Z,4.98
2023-02-05T20:31:49.992Z,5.00
2023-02-05T20:34:20.472Z,4.98
2023-02-05T20:36:52.966Z,5.02
2023-02-05T20:39:20.404Z,5.00
2023-02-05T20:41:49.783Z,4.99
2023-02-05T20:44:17.935Z,4.96
2023-02-05T20:46:44.798Z,5.00
2023-02-05T20:49:11.793Z,4.92
2023-02-05T20:51:39.120Z,4.92
2023-02-05T20:54:06.556Z,4.92
2023-02-05T20:56:33.606Z,4.95
2023-02-05T20:59:02.373Z,4.89
2023-02-05T21:01:31.991Z,4.93
2023-02-05T21:04:01.267Z,4.99
2023-02-05T21:06:31.493Z,4.96
2023-02-05T21:08:58.313Z,4.93
2023-02-05T21:11:27.217Z,4.95
2023-02-05T21:13:54.144Z,4.98
2023-02-05T21:16:23.839Z,4.95
2023-02-05T21:18:51.908Z,4.96
2023-02-05T21:21:22.260Z,4.93
2023-02-05T21:23:49.118Z,4.96
2023-02-05T21:26:24.783Z,4.94
2023-02-05T21:28:56.851Z,4.99
2023-02-05T21:31:24.887Z,4.96
2023-02-05T21:33:51.699Z,4.93
2023-02-05T21:36:20.456Z,4.95
2023-02-05T21:38:47.218Z,4.97
2023-02-05T21:41:16.665Z,4.97
2023-02-05T21:43:43.858Z,5.02
2023-02-05T21:46:13.153Z,5.03
2023-02-05T21:48:40.456Z,5.02
2023-02-05T21:51:13.089Z,5.00
2023-02-05T21:53:40.843Z,4.99
2023-02-05T21:56:16.954Z,5.01
2023-02-05T21:58:43.679Z,5.01
2023-02-05T22:01:20.080Z,5.00
2023-02-05T22:03:52.749Z,5.04
2023-02-05T22:06:21.301Z,5.02
2023-02-05T22:08:50.637Z,5.02
2023-02-05T22:11:19.760Z,5.04
2023-02-05T22:13:48.637Z,5.03
2023-02-05T22:16:18.595Z,5.07
2023-02-05T22:18:45.745Z,5.04
2023-02-05T22:21:18.718Z,5.07
2023-02-05T22:23:50.400Z,5.02
2023-02-05T22:26:19.255Z,5.04
2023-02-05T22:28:46.216Z,5.06
2023-02-05T22:31:16.155Z,5.07
2023-02-05T22:33:45.539Z,5.08
2023-02-05T22:36:14.210Z,5.07
2023-02-05T22:38:42.034Z,5.06
2023-02-05T22:41:13.403Z,5.09
2023-02-05T22:43:40.509Z,5.06
2023-02-05T22:46:12.671Z,5.05
2023-02-05T22:48:41.228Z,5.04
2023-02-05T22:51:10.477Z,5.01
2023-02-05T22:53:37.744Z,5.03
2023-02-05T22:56:09.513Z,5.00
2023-02-05T22:58:40.178Z,5.00
2023-02-05T23:01:09.408Z,5.01
2023-02-05T23:03:37.230Z,5.02
2023-02-05T23:06:16.120Z,5.03
2023-02-05T23:08:43.614Z,4.99
2023-02-05T23:11:13.131Z,5.01
2023-02-05T23:13:41.330Z,5.00
2023-02-05T23:16:19.693Z,5.01
2023-02-05T23:18:47.115Z,5.00
2023-02-05T23:21:18.086Z,4.98
2023-02-05T23:23:45.167Z,4.99
2023-02-05T23:26:16.941Z,4.98
2023-02-05T23:28:43.984Z,4.95
2023-02-05T23:31:10.998Z,4.94
2023-02-05T23:33:37.782Z,4.93
2023-02-05T23:36:06.513Z,4.94
2023-02-05T23:38:34.156Z,4.94
2023-02-05T23:41:01.103Z,4.93
2023-02-05T23:43:28.545Z,4.91
2023-02-05T23:45:55.278Z,4.92
2023-02-05T23:48:22.021Z,4.91
2023-02-05T23:50:50.102Z,4.88
2023-02-05T23:53:17.390Z,4.87
2023-02-05T23:55:44.567Z,4.89
2023-02-05T23:58:11.530Z,4.86
